Terminal Aerodrome Forecast
Issued by NWS Paducah, KY

Home | Current Version | Previous Version | Text Only | Print | Product List | Glossary On
Versions: 1 2 3 4 5 6 7 8 9 10 11 12 13 14 15 16 17 18 19
000
FTUS43 KPAH 260958 AAA
TAFPAH
TAF AMD
KPAH 260958Z 2610/2706 00000KT P6SM SCT040 BKN200
      TEMPO 2611/2612 5SM BR
     FM261400 VRB03KT P6SM SCT040 BKN150=

USA.gov is the U.S. government's official web portal to all federal, state and local government web resources and services.